createdAt,value
2023-10-20T00:02:09.829Z,98944.00
2023-10-20T00:04:40.363Z,98937.00
2023-10-20T00:07:11.036Z,98936.00
2023-10-20T00:09:41.407Z,98943.00
2023-10-20T00:12:12.942Z,98939.00
2023-10-20T00:14:46.198Z,98942.00
2023-10-20T00:17:16.585Z,98932.00
2023-10-20T00:19:46.952Z,98925.00
2023-10-20T00:22:17.342Z,98937.00
2023-10-20T00:24:47.711Z,98946.00
2023-10-20T00:27:18.125Z,98947.00
2023-10-20T00:29:51.046Z,98951.00
2023-10-20T00:32:21.416Z,98951.00
2023-10-20T00:34:51.817Z,98944.00
2023-10-20T00:37:23.096Z,98944.00
2023-10-20T00:39:54.999Z,98928.00
2023-10-20T00:42:25.386Z,98934.00
2023-10-20T00:44:58.335Z,98933.00
2023-10-20T00:47:28.753Z,98926.00
2023-10-20T00:49:59.659Z,98932.00
2023-10-20T00:52:30.866Z,98933.00
2023-10-20T00:55:02.356Z,98931.00
2023-10-20T00:57:33.666Z,98916.00
2023-10-20T01:00:10.414Z,98903.00
2023-10-20T01:02:41.075Z,98912.00
2023-10-20T01:05:16.267Z,98904.00
2023-10-20T01:07:47.142Z,98903.00
2023-10-20T01:10:17.508Z,98895.00
2023-10-20T01:12:47.999Z,98896.00
2023-10-20T01:15:21.117Z,98887.00
2023-10-20T01:17:51.557Z,98882.00
2023-10-20T01:20:22.030Z,98892.00
2023-10-20T01:22:52.462Z,98901.00
2023-10-20T01:25:25.794Z,98901.00
2023-10-20T01:27:56.779Z,98913.00
2023-10-20T01:30:27.173Z,98901.00
2023-10-20T01:32:57.624Z,98899.00
2023-10-20T01:35:28.158Z,98885.00
2023-10-20T01:37:58.618Z,98898.00
2023-10-20T01:40:31.576Z,98892.00
2023-10-20T01:43:02.017Z,98892.00
2023-10-20T01:45:32.343Z,98895.00
2023-10-20T01:48:02.763Z,98888.00
2023-10-20T01:50:33.225Z,98887.00
2023-10-20T01:53:03.698Z,98882.00
2023-10-20T01:55:36.851Z,98887.00
2023-10-20T01:58:07.550Z,98866.00
2023-10-20T02:00:39.472Z,98864.00
2023-10-20T02:03:10.023Z,98874.00
2023-10-20T02:05:40.468Z,98878.00
2023-10-20T02:08:12.419Z,98868.00
2023-10-20T02:10:48.147Z,98867.00
2023-10-20T02:13:18.518Z,98860.00
2023-10-20T02:15:52.118Z,98862.00
2023-10-20T02:18:22.472Z,98861.00
2023-10-20T02:21:04.814Z,98855.00
2023-10-20T02:23:36.004Z,98864.00
2023-10-20T02:26:10.935Z,98871.00
2023-10-20T02:28:41.975Z,98862.00
2023-10-20T02:31:18.632Z,98861.00
2023-10-20T02:33:49.535Z,98864.00
2023-10-20T02:36:20.688Z,98853.00
2023-10-20T02:38:53.417Z,98845.00
2023-10-20T02:41:26.495Z,98851.00
2023-10-20T02:43:56.920Z,98854.00
2023-10-20T02:46:27.319Z,98855.00
2023-10-20T02:48:57.721Z,98857.00
2023-10-20T02:51:28.197Z,98856.00
2023-10-20T02:53:58.609Z,98826.00
2023-10-20T02:56:31.643Z,98837.00
2023-10-20T02:59:02.099Z,98830.00
2023-10-20T03:01:32.532Z,98827.00
2023-10-20T03:04:03.040Z,98835.00
2023-10-20T03:06:33.614Z,98825.00
2023-10-20T03:09:04.456Z,98812.00
2023-10-20T03:11:37.440Z,98803.00
2023-10-20T03:14:07.827Z,98809.00
2023-10-20T03:16:44.059Z,98810.00
2023-10-20T03:19:16.138Z,98808.00
2023-10-20T03:21:46.585Z,98806.00
2023-10-20T03:24:16.947Z,98812.00
2023-10-20T03:26:49.966Z,98812.00
2023-10-20T03:29:20.394Z,98809.00
2023-10-20T03:31:50.740Z,98826.00
2023-10-20T03:34:22.283Z,98801.00
2023-10-20T03:36:53.386Z,98786.00
2023-10-20T03:39:24.924Z,98783.00
2023-10-20T03:41:57.856Z,98798.00
2023-10-20T03:44:29.202Z,98784.00
2023-10-20T03:47:01.348Z,98781.00
2023-10-20T03:49:35.128Z,98780.00
2023-10-20T03:52:08.019Z,98771.00
2023-10-20T03:54:38.368Z,98778.00
2023-10-20T03:57:11.323Z,98781.00
2023-10-20T03:59:41.757Z,98784.00
2023-10-20T04:02:12.223Z,98775.00
2023-10-20T04:04:42.626Z,98778.00
2023-10-20T04:07:13.019Z,98775.00
2023-10-20T04:09:43.396Z,98767.00
2023-10-20T04:12:17.757Z,98768.00
2023-10-20T04:14:48.175Z,98768.00
2023-10-20T04:17:18.616Z,98760.00
2023-10-20T04:19:50.750Z,98764.00
2023-10-20T04:22:21.114Z,98758.00
2023-10-20T04:24:51.470Z,98747.00
2023-10-20T04:27:40.756Z,98741.00
2023-10-20T04:30:24.591Z,98737.00
2023-10-20T04:33:07.597Z,98728.00
2023-10-20T04:35:50.624Z,98732.00
2023-10-20T04:38:33.492Z,98737.00
2023-10-20T04:41:21.926Z,98750.00
2023-10-20T04:44:08.057Z,98736.00
2023-10-20T04:46:50.912Z,98724.00
2023-10-20T04:49:52.459Z,98723.00
2023-10-20T04:52:36.207Z,98734.00
2023-10-20T04:55:19.608Z,98723.00
2023-10-20T04:58:02.641Z,98724.00
2023-10-20T05:00:41.687Z,98739.00
2023-10-20T05:03:30.961Z,98732.00
2023-10-20T05:06:20.881Z,98736.00
2023-10-20T05:08:51.251Z,98732.00
2023-10-20T05:11:21.686Z,98738.00
2023-10-20T05:13:52.092Z,98724.00
2023-10-20T05:16:27.489Z,98726.00
2023-10-20T05:18:57.940Z,98718.00
2023-10-20T05:21:29.538Z,98717.00
2023-10-20T05:23:59.890Z,98732.00
2023-10-20T05:26:30.302Z,98734.00
2023-10-20T05:29:00.718Z,98738.00
2023-10-20T05:31:33.894Z,98732.00
2023-10-20T05:34:05.153Z,98733.00
2023-10-20T05:36:35.523Z,98737.00
2023-10-20T05:39:06.079Z,98737.00
2023-10-20T05:41:36.514Z,98739.00
2023-10-20T05:44:07.717Z,98730.00
2023-10-20T05:46:41.833Z,98737.00
2023-10-20T05:49:12.507Z,98732.00
2023-10-20T05:51:42.981Z,98752.00
2023-10-20T05:54:13.328Z,98734.00
2023-10-20T05:56:43.692Z,98733.00
2023-10-20T05:59:14.126Z,98735.00
2023-10-20T06:01:47.195Z,98726.00
2023-10-20T06:04:17.578Z,98704.00
2023-10-20T06:06:47.928Z,98705.00
2023-10-20T06:09:18.307Z,98712.00
2023-10-20T06:11:48.645Z,98720.00
2023-10-20T06:14:19.031Z,98719.00
2023-10-20T06:16:52.000Z,98713.00
2023-10-20T06:19:22.659Z,98709.00
2023-10-20T06:21:53.022Z,98700.00
2023-10-20T06:24:23.402Z,98684.00
2023-10-20T06:26:53.998Z,98683.00
2023-10-20T06:29:29.123Z,98680.00
2023-10-20T06:32:11.261Z,98688.00
2023-10-20T06:34:43.434Z,98699.00
2023-10-20T06:37:15.859Z,98701.00
2023-10-20T06:39:46.196Z,98701.00
2023-10-20T06:42:16.517Z,98706.00
2023-10-20T06:44:46.965Z,98703.00
2023-10-20T06:47:20.004Z,98699.00
2023-10-20T06:49:50.368Z,98680.00
2023-10-20T06:52:21.226Z,98682.00
2023-10-20T06:55:15.218Z,98686.00
2023-10-20T06:57:42.835Z,98679.00
2023-10-20T07:00:22.143Z,98675.00
2023-10-20T07:02:55.152Z,98662.00
2023-10-20T07:05:25.703Z,98656.00
2023-10-20T07:07:56.230Z,98656.00
2023-10-20T07:10:26.705Z,98660.00
2023-10-20T07:12:57.930Z,98641.00
2023-10-20T07:15:28.326Z,98636.00
2023-10-20T07:18:01.336Z,98640.00
2023-10-20T07:20:33.566Z,98656.00
2023-10-20T07:23:04.227Z,98640.00
2023-10-20T07:25:34.612Z,98631.00
2023-10-20T07:28:05.367Z,98631.00
2023-10-20T07:30:35.783Z,98638.00
2023-10-20T07:33:09.352Z,98618.00
2023-10-20T07:35:43.906Z,98610.00
2023-10-20T07:38:14.908Z,98622.00
2023-10-20T07:40:45.301Z,98626.00
2023-10-20T07:43:15.641Z,98624.00
2023-10-20T07:45:46.620Z,98635.00
2023-10-20T07:48:19.765Z,98634.00
2023-10-20T07:50:50.291Z,98632.00
2023-10-20T07:53:20.718Z,98611.00
2023-10-20T07:55:51.102Z,98608.00
2023-10-20T07:58:21.438Z,98598.00
2023-10-20T08:00:52.334Z,98585.00
2023-10-20T08:03:25.916Z,98591.00
2023-10-20T08:05:56.690Z,98606.00
2023-10-20T08:08:27.323Z,98596.00
2023-10-20T08:10:57.663Z,98580.00
2023-10-20T08:13:28.028Z,98573.00
2023-10-20T08:15:58.446Z,98561.00
2023-10-20T08:18:34.664Z,98555.00
2023-10-20T08:21:13.728Z,98574.00
2023-10-20T08:23:44.089Z,98548.00
2023-10-20T08:26:21.096Z,98560.00
2023-10-20T08:28:52.729Z,98559.00
2023-10-20T08:31:23.520Z,98568.00
2023-10-20T08:33:58.620Z,98588.00
2023-10-20T08:36:29.327Z,98600.00
2023-10-20T08:39:02.749Z,98582.00
2023-10-20T08:41:34.456Z,98579.00
2023-10-20T08:44:05.060Z,98584.00
2023-10-20T08:46:36.206Z,98602.00
2023-10-20T08:49:10.574Z,98605.00
2023-10-20T08:51:41.720Z,98614.00
2023-10-20T08:54:14.782Z,98614.00
2023-10-20T08:56:45.271Z,98616.00
2023-10-20T08:59:15.774Z,98597.00
2023-10-20T09:01:48.437Z,98586.00
2023-10-20T09:04:28.199Z,98574.00
2023-10-20T09:07:00.792Z,98581.00
2023-10-20T09:09:31.244Z,98596.00
2023-10-20T09:12:01.639Z,98584.00
2023-10-20T09:14:32.545Z,98577.00
2023-10-20T09:17:04.243Z,98581.00
2023-10-20T09:19:37.265Z,98589.00
2023-10-20T09:22:07.605Z,98593.00
2023-10-20T09:24:39.198Z,98584.00
2023-10-20T09:27:09.649Z,98566.00
2023-10-20T09:29:41.723Z,98550.00
2023-10-20T09:34:45.871Z,98554.00
2023-10-20T09:37:16.850Z,98555.00
2023-10-20T09:39:49.185Z,98560.00
2023-10-20T09:42:27.959Z,98547.00
2023-10-20T09:45:02.651Z,98551.00
2023-10-20T09:47:35.489Z,98556.00
2023-10-20T09:50:13.178Z,98548.00
2023-10-20T09:52:44.285Z,98528.00
2023-10-20T09:55:15.621Z,98529.00
2023-10-20T09:57:46.152Z,98521.00
2023-10-20T10:00:18.794Z,98518.00
2023-10-20T10:02:50.566Z,98519.00
2023-10-20T10:05:30.017Z,98505.00
2023-10-20T10:08:11.391Z,98507.00
2023-10-20T10:10:41.891Z,98510.00
2023-10-20T10:13:12.398Z,98508.00
2023-10-20T10:15:42.861Z,98512.00
2023-10-20T10:18:14.676Z,98503.00
2023-10-20T10:20:50.637Z,98495.00
2023-10-20T10:23:22.716Z,98493.00
2023-10-20T10:25:54.925Z,98493.00
2023-10-20T10:28:26.805Z,98496.00
2023-10-20T10:30:57.186Z,98485.00
2023-10-20T10:33:28.453Z,98487.00
2023-10-20T10:36:11.783Z,98489.00
2023-10-20T10:38:46.390Z,98489.00
2023-10-20T10:41:16.807Z,98495.00
2023-10-20T10:43:47.956Z,98504.00
2023-10-20T10:46:19.682Z,98500.00
2023-10-20T10:48:53.796Z,98499.00
2023-10-20T10:51:26.892Z,98496.00
2023-10-20T10:53:57.820Z,98485.00
2023-10-20T10:56:28.735Z,98488.00
2023-10-20T10:59:00.068Z,98484.00
2023-10-20T11:01:30.806Z,98476.00
2023-10-20T11:04:01.625Z,98481.00
2023-10-20T11:06:37.250Z,98490.00
2023-10-20T11:09:12.167Z,98484.00
2023-10-20T11:11:46.979Z,98485.00
2023-10-20T11:14:22.316Z,98476.00
2023-10-20T11:16:53.277Z,98480.00
2023-10-20T11:19:29.848Z,98484.00
2023-10-20T11:22:02.876Z,98486.00
2023-10-20T11:24:37.826Z,98489.00
2023-10-20T11:27:10.212Z,98495.00
2023-10-20T11:29:58.590Z,98499.00
2023-10-20T11:32:29.851Z,98494.00
2023-10-20T11:35:00.346Z,98494.00
2023-10-20T11:37:33.503Z,98498.00
2023-10-20T11:40:04.051Z,98504.00
2023-10-20T11:42:34.415Z,98503.00
2023-10-20T11:45:04.977Z,98504.00
2023-10-20T11:47:35.393Z,98494.00
2023-10-20T11:50:05.937Z,98504.00
2023-10-20T11:52:39.014Z,98481.00
2023-10-20T11:55:10.201Z,98484.00
2023-10-20T11:57:40.863Z,98488.00
2023-10-20T12:00:15.234Z,98503.00
2023-10-20T12:02:45.826Z,98494.00
2023-10-20T12:05:16.247Z,98504.00
2023-10-20T12:07:49.196Z,98507.00
2023-10-20T12:10:19.593Z,98498.00
2023-10-20T12:12:49.940Z,98489.00
2023-10-20T12:15:20.518Z,98491.00
2023-10-20T12:17:51.668Z,98482.00
2023-10-20T12:20:22.152Z,98482.00
2023-10-20T12:22:56.652Z,98472.00
2023-10-20T12:25:27.081Z,98472.00
2023-10-20T12:27:57.440Z,98476.00
2023-10-20T12:30:27.884Z,98449.00
2023-10-20T12:32:58.334Z,98450.00
2023-10-20T12:35:28.846Z,98440.00
2023-10-20T12:38:05.812Z,98436.00
2023-10-20T12:40:40.634Z,98433.00
2023-10-20T12:43:15.161Z,98417.00
2023-10-20T12:45:45.597Z,98416.00
2023-10-20T12:48:15.996Z,98426.00
2023-10-20T12:50:46.522Z,98411.00
2023-10-20T12:53:19.668Z,98403.00
2023-10-20T12:55:53.505Z,98410.00
2023-10-20T12:58:24.232Z,98419.00
2023-10-20T13:00:54.797Z,98406.00
2023-10-20T13:03:25.620Z,98388.00
2023-10-20T13:05:56.215Z,98381.00
2023-10-20T13:08:31.926Z,98373.00
2023-10-20T13:11:02.334Z,98363.00
2023-10-20T13:13:33.887Z,98357.00
2023-10-20T13:16:04.624Z,98351.00
2023-10-20T13:18:35.150Z,98347.00
2023-10-20T13:21:06.922Z,98345.00
2023-10-20T13:23:39.894Z,98349.00
2023-10-20T13:26:10.595Z,98349.00
2023-10-20T13:28:41.720Z,98331.00
2023-10-20T13:31:15.152Z,98317.00
2023-10-20T13:33:47.058Z,98307.00
2023-10-20T13:36:19.439Z,98322.00
2023-10-20T13:38:52.602Z,98315.00
2023-10-20T13:41:23.009Z,98320.00
2023-10-20T13:43:53.524Z,98311.00
2023-10-20T13:46:24.039Z,98305.00
2023-10-20T13:48:54.421Z,98297.00
2023-10-20T13:51:24.767Z,98293.00
2023-10-20T13:53:57.986Z,98295.00
2023-10-20T13:56:28.339Z,98296.00
2023-10-20T13:58:58.791Z,98296.00
2023-10-20T14:01:29.160Z,98287.00
2023-10-20T14:03:59.685Z,98285.00
2023-10-20T14:06:30.113Z,98286.00
2023-10-20T14:09:04.517Z,98275.00
2023-10-20T14:11:35.110Z,98291.00
2023-10-20T14:14:06.799Z,98280.00
2023-10-20T14:16:37.291Z,98291.00
2023-10-20T14:19:08.409Z,98303.00
2023-10-20T14:21:38.809Z,98300.00
2023-10-20T14:24:12.138Z,98301.00
2023-10-20T14:26:42.496Z,98298.00
2023-10-20T14:29:12.941Z,98288.00
2023-10-20T14:31:43.274Z,98302.00
2023-10-20T14:34:13.632Z,98292.00
2023-10-20T14:36:43.967Z,98300.00
2023-10-20T14:39:16.952Z,98283.00
2023-10-20T14:41:47.326Z,98268.00
2023-10-20T14:44:17.742Z,98270.00
2023-10-20T14:46:48.316Z,98263.00
2023-10-20T14:49:19.328Z,98268.00
2023-10-20T14:51:49.729Z,98250.00
2023-10-20T14:54:22.647Z,98258.00
2023-10-20T14:56:54.990Z,98267.00
2023-10-20T14:59:26.382Z,98255.00
2023-10-20T15:01:57.925Z,98252.00
2023-10-20T15:04:30.779Z,98264.00
2023-10-20T15:07:01.464Z,98265.00
2023-10-20T15:09:34.599Z,98262.00
2023-10-20T15:12:05.122Z,98267.00
2023-10-20T15:14:35.812Z,98268.00
2023-10-20T15:17:06.272Z,98270.00
2023-10-20T15:19:37.347Z,98269.00
2023-10-20T15:22:10.278Z,98262.00
2023-10-20T15:24:43.546Z,98256.00
2023-10-20T15:27:18.080Z,98274.00
2023-10-20T15:29:49.977Z,98279.00
2023-10-20T15:32:21.515Z,98268.00
2023-10-20T15:34:55.145Z,98261.00
2023-10-20T15:37:26.362Z,98267.00
2023-10-20T15:40:15.619Z,98311.00
2023-10-20T15:42:48.474Z,98315.00
2023-10-20T15:45:20.100Z,98286.00
2023-10-20T15:47:52.114Z,98291.00
2023-10-20T15:50:22.681Z,98282.00
2023-10-20T15:52:53.011Z,98272.00
2023-10-20T15:55:25.985Z,98273.00
2023-10-20T15:57:57.516Z,98293.00
2023-10-20T16:00:28.177Z,98263.00
2023-10-20T16:02:58.907Z,98267.00
2023-10-20T16:05:29.928Z,98275.00
2023-10-20T16:08:00.323Z,98270.00
2023-10-20T16:10:34.482Z,98250.00
2023-10-20T16:13:04.809Z,98246.00
2023-10-20T16:15:35.157Z,98283.00
2023-10-20T16:18:05.684Z,98282.00
2023-10-20T16:20:36.137Z,98289.00
2023-10-20T16:23:06.864Z,98274.00
2023-10-20T16:25:39.784Z,98281.00
2023-10-20T16:28:10.533Z,98293.00
2023-10-20T16:30:40.872Z,98295.00
2023-10-20T16:33:11.326Z,98292.00
2023-10-20T16:35:41.800Z,98315.00
2023-10-20T16:38:12.152Z,98317.00
2023-10-20T16:40:45.351Z,98303.00
2023-10-20T16:43:15.674Z,98314.00
2023-10-20T16:45:46.079Z,98310.00
2023-10-20T16:48:17.127Z,98300.00
2023-10-20T16:50:47.967Z,98308.00
2023-10-20T16:53:18.356Z,98313.00
2023-10-20T16:55:51.285Z,98310.00
2023-10-20T16:58:23.336Z,98317.00
2023-10-20T17:00:53.647Z,98328.00
2023-10-20T17:03:24.079Z,98320.00
2023-10-20T17:05:54.546Z,98320.00
2023-10-20T17:08:26.539Z,98315.00
2023-10-20T17:11:01.347Z,98308.00
2023-10-20T17:13:31.701Z,98306.00
2023-10-20T17:16:07.571Z,98295.00
2023-10-20T17:18:38.171Z,98282.00
2023-10-20T17:21:09.796Z,98285.00
2023-10-20T17:23:40.488Z,98283.00
2023-10-20T17:26:13.951Z,98298.00
2023-10-20T17:28:44.521Z,98310.00
2023-10-20T17:31:14.911Z,98306.00
2023-10-20T17:33:45.504Z,98306.00
2023-10-20T17:36:17.148Z,98299.00
2023-10-20T17:38:47.586Z,98290.00
2023-10-20T17:41:20.560Z,98295.00
2023-10-20T17:43:50.907Z,98281.00
2023-10-20T17:46:21.412Z,98288.00
2023-10-20T17:48:52.543Z,98270.00
2023-10-20T17:51:23.807Z,98274.00
2023-10-20T17:53:55.287Z,98285.00
2023-10-20T17:56:28.250Z,98292.00
2023-10-20T17:58:58.609Z,98290.00
2023-10-20T18:01:29.024Z,98283.00
2023-10-20T18:03:59.458Z,98280.00
2023-10-20T18:06:29.846Z,98286.00
2023-10-20T18:09:00.303Z,98295.00
2023-10-20T18:11:33.381Z,98300.00
2023-10-20T18:14:04.281Z,98310.00
2023-10-20T18:16:34.687Z,98322.00
2023-10-20T18:19:08.230Z,98313.00
2023-10-20T18:21:38.703Z,98311.00
2023-10-20T18:24:11.334Z,98327.00
2023-10-20T18:26:44.358Z,98338.00
2023-10-20T18:29:14.769Z,98336.00
2023-10-20T18:31:45.950Z,98342.00
2023-10-20T18:34:16.365Z,98352.00
2023-10-20T18:36:46.745Z,98355.00
2023-10-20T18:39:18.284Z,98359.00
2023-10-20T18:41:52.561Z,98377.00
2023-10-20T18:44:22.951Z,98370.00
2023-10-20T18:46:53.272Z,98367.00
2023-10-20T18:49:24.614Z,98354.00
2023-10-20T18:51:54.943Z,98341.00
2023-10-20T18:54:25.287Z,98337.00
2023-10-20T18:56:58.227Z,98341.00
2023-10-20T18:59:28.590Z,98352.00
2023-10-20T19:01:58.952Z,98359.00
2023-10-20T19:04:29.391Z,98370.00
2023-10-20T19:06:59.751Z,98387.00
2023-10-20T19:09:30.118Z,98403.00
2023-10-20T19:12:03.262Z,98390.00
2023-10-20T19:14:33.701Z,98396.00
2023-10-20T19:17:04.040Z,98399.00
2023-10-20T19:19:34.617Z,98379.00
2023-10-20T19:22:05.122Z,98391.00
2023-10-20T19:24:35.555Z,98415.00
2023-10-20T19:27:08.757Z,98424.00
2023-10-20T19:29:39.326Z,98421.00
2023-10-20T19:32:11.050Z,98415.00
2023-10-20T19:34:41.500Z,98435.00
2023-10-20T19:37:11.885Z,98417.00
2023-10-20T19:39:44.157Z,98400.00
2023-10-20T19:42:17.090Z,98424.00
2023-10-20T19:44:47.747Z,98410.00
2023-10-20T19:47:18.111Z,98414.00
2023-10-20T19:49:48.502Z,98408.00
2023-10-20T19:52:18.824Z,98416.00
2023-10-20T19:54:49.321Z,98417.00
2023-10-20T19:57:22.228Z,98422.00
2023-10-20T19:59:52.598Z,98415.00
2023-10-20T20:02:23.033Z,98416.00
2023-10-20T20:04:56.217Z,98402.00
2023-10-20T20:07:28.089Z,98391.00
2023-10-20T20:09:58.474Z,98407.00
2023-10-20T20:12:31.575Z,98406.00
2023-10-20T20:15:01.970Z,98407.00
2023-10-20T20:17:32.741Z,98398.00
2023-10-20T20:20:04.331Z,98408.00
2023-10-20T20:22:34.668Z,98421.00
2023-10-20T20:25:05.135Z,98413.00
2023-10-20T20:27:38.190Z,98413.00
2023-10-20T20:30:09.684Z,98427.00
2023-10-20T20:32:40.105Z,98425.00
2023-10-20T20:35:11.193Z,98438.00
2023-10-20T20:37:41.606Z,98425.00
2023-10-20T20:40:12.615Z,98417.00
2023-10-20T20:42:45.551Z,98424.00
2023-10-20T20:45:15.956Z,98413.00
2023-10-20T20:47:46.397Z,98407.00
2023-10-20T20:50:29.857Z,98422.00
2023-10-20T20:53:03.660Z,98425.00
2023-10-20T20:55:37.740Z,98432.00
2023-10-20T20:58:11.122Z,98419.00
2023-10-20T21:00:41.485Z,98425.00
2023-10-20T21:03:12.029Z,98420.00
2023-10-20T21:05:42.478Z,98438.00
2023-10-20T21:08:12.827Z,98451.00
2023-10-20T21:10:43.359Z,98467.00
2023-10-20T21:13:16.268Z,98469.00
2023-10-20T21:15:46.623Z,98453.00
2023-10-20T21:18:17.597Z,98449.00
2023-10-20T21:20:48.031Z,98445.00
2023-10-20T21:23:18.371Z,98434.00
2023-10-20T21:25:48.753Z,98431.00
2023-10-20T21:28:21.693Z,98416.00
2023-10-20T21:30:52.054Z,98419.00
2023-10-20T21:33:22.510Z,98427.00
2023-10-20T21:35:52.933Z,98417.00
2023-10-20T21:38:23.270Z,98416.00
2023-10-20T21:40:53.684Z,98406.00
2023-10-20T21:43:26.664Z,98403.00
2023-10-20T21:46:01.019Z,98379.00
2023-10-20T21:48:31.639Z,98404.00
2023-10-20T21:51:03.504Z,98405.00
2023-10-20T21:53:35.820Z,98425.00
2023-10-20T21:56:07.372Z,98405.00
2023-10-20T21:58:40.788Z,98417.00
2023-10-20T22:01:13.451Z,98444.00
2023-10-20T22:03:44.212Z,98445.00
2023-10-20T22:06:15.690Z,98439.00
2023-10-20T22:08:46.133Z,98432.00
2023-10-20T22:11:16.525Z,98441.00
2023-10-20T22:13:49.435Z,98437.00
2023-10-20T22:16:19.782Z,98446.00
2023-10-20T22:18:51.268Z,98437.00
2023-10-20T22:21:21.662Z,98432.00
2023-10-20T22:23:52.197Z,98425.00
2023-10-20T22:26:22.550Z,98423.00
2023-10-20T22:28:55.476Z,98442.00
2023-10-20T22:31:26.024Z,98426.00
2023-10-20T22:33:56.395Z,98423.00
2023-10-20T22:36:26.922Z,98419.00
2023-10-20T22:38:57.361Z,98430.00
2023-10-20T22:41:28.554Z,98436.00
2023-10-20T22:44:01.488Z,98432.00
2023-10-20T22:46:31.942Z,98436.00
2023-10-20T22:49:02.310Z,98432.00
2023-10-20T22:51:32.670Z,98429.00
2023-10-20T22:54:03.029Z,98433.00
2023-10-20T22:56:33.368Z,98428.00
2023-10-20T22:59:07.580Z,98443.00
2023-10-20T23:01:37.987Z,98462.00
2023-10-20T23:04:09.131Z,98460.00
2023-10-20T23:06:39.569Z,98458.00
2023-10-20T23:09:10.627Z,98458.00
2023-10-20T23:11:41.119Z,98472.00
2023-10-20T23:14:14.161Z,98481.00
2023-10-20T23:16:44.839Z,98480.00
2023-10-20T23:19:15.258Z,98490.00
2023-10-20T23:21:45.644Z,98487.00
2023-10-20T23:24:15.983Z,98481.00
2023-10-20T23:26:46.416Z,98479.00
2023-10-20T23:29:19.550Z,98477.00
2023-10-20T23:31:49.910Z,98474.00
2023-10-20T23:34:21.193Z,98478.00
2023-10-20T23:36:51.506Z,98493.00
2023-10-20T23:39:21.840Z,98500.00
2023-10-20T23:41:52.235Z,98499.00
2023-10-20T23:44:25.283Z,98502.00
2023-10-20T23:46:55.600Z,98515.00
2023-10-20T23:49:26.474Z,98534.00
2023-10-20T23:51:56.843Z,98526.00
2023-10-20T23:54:27.255Z,98537.00
2023-10-20T23:56:57.705Z,98535.00
2023-10-20T23:59:31.814Z,98553.00
